Yalesville, CT

1:14 PM EST on November 24, 2014 (GMT -0500)
Choate Rosemary Hall | Change Station
CLOSE
Current Station
Personal Weather Station
Location: Wallingford, CT
Elevation: 158 ft
Nearby Weather Stations
Active Advisory: Winter Storm Watch Active Notice: Public Information Statement

Elev 158 ft 41.46 °N, 72.81 °W | Updated 9 minutes ago

Overcast
Overcast
61.4 °F
Feels Like 61.4 °F
N
8.0
Wind Variable Wind from NNW

Today
High -- | Low -- °F
--% Chance of Precip.
Yesterday
High -- | Low -- °F
Precip. -- in
6:50 AM 4:25 PM
Waxing Crescent, 6% visible
Pressure 29.62 in
Visibility 8.0 miles
Clouds Overcast 500 ft
Dew Point 61 °F
Humidity 98%
Rainfall 0.00 in
Snow Depth Not available.
UV 0.8 out of 12
Pollen .10 out of 12
Air Quality Not available.
Flu Activity Not available.
METAR KMMK 241753Z AUTO 18011G18KT 8SM OVC005 16/15 A2963 RMK AO2 SLP031 60031 T01610150 10167 20156 58020 TSNO

More Conditions Fewer Conditions

Pressure 29.62 in
Visibility 8.0 miles
Clouds Overcast 500 ft
Dew Point 61 °F
Humidity 98%
Rainfall 0.00 in
Snow Depth Not available.
UV 0.8 out of 12
Pollen .10 out of 12
Air Quality Not available.
Flu Activity Not available.
METAR KMMK 241753Z AUTO 18011G18KT 8SM OVC005 16/15 A2963 RMK AO2 SLP031 60031 T01610150 10167 20156 58020 TSNO

More Conditions Fewer Conditions

10-Day Weather Forecast

Almanac

Astronomy

Nov. 24, 2014 Rise Set
Actual Time
Civil Twilight
Nautical Twilight
Astronomical Twilight
Moon
Length of Visible Light
Length of Day
Tomorrow will be .
, % of the Moon is Illuminated

Today's Extremes

State Highs State Lows

Community

WunderPhotos

Upload Photos

1,773,385 photos uploaded!

WunderBlogs® & News

Nearby

Air Quality

  Air Quality AQ Index Pollutant
Not available.

Snow Depth

Station Depth Elevation

Earthquake Activity

City Distance Mag. Time & Date
Minimum magnitude displayed is 2.5.

Coastal Water Temperatures

Place Temperature

Nearby Weather Stations